createdAt,value
2023-04-23T00:01:17.182Z,16.40
2023-04-23T00:03:45.186Z,16.30
2023-04-23T00:06:13.173Z,16.30
2023-04-23T00:08:43.358Z,16.30
2023-04-23T00:11:11.199Z,16.30
2023-04-23T00:13:38.480Z,16.20
2023-04-23T00:16:05.970Z,16.20
2023-04-23T00:18:32.916Z,16.20
2023-04-23T00:20:59.927Z,16.20
2023-04-23T00:23:27.054Z,16.20
2023-04-23T00:25:54.305Z,16.20
2023-04-23T00:28:22.369Z,16.20
2023-04-23T00:30:49.532Z,16.20
2023-04-23T00:33:16.486Z,16.20
2023-04-23T00:35:43.377Z,16.10
2023-04-23T00:38:10.337Z,16.10
2023-04-23T00:40:37.411Z,16.10
2023-04-23T00:43:04.871Z,16.10
2023-04-23T00:45:31.955Z,16.10
2023-04-23T00:47:59.214Z,16.10
2023-04-23T00:50:26.254Z,16.10
2023-04-23T00:52:53.190Z,16.00
2023-04-23T00:55:21.481Z,16.00
2023-04-23T00:57:48.859Z,16.00
2023-04-23T01:00:16.244Z,16.00
2023-04-23T01:02:44.653Z,16.00
2023-04-23T01:05:14.294Z,15.90
2023-04-23T01:07:42.129Z,15.90
2023-04-23T01:10:10.045Z,15.90
2023-04-23T01:12:37.033Z,15.90
2023-04-23T01:15:04.782Z,15.90
2023-04-23T01:17:32.418Z,15.90
2023-04-23T01:19:59.301Z,15.80
2023-04-23T01:22:26.361Z,15.80
2023-04-23T01:24:53.410Z,15.90
2023-04-23T01:27:20.425Z,15.80
2023-04-23T01:29:48.471Z,15.80
2023-04-23T01:32:15.944Z,15.80
2023-04-23T01:34:54.187Z,15.80
2023-04-23T01:37:21.522Z,15.80
2023-04-23T01:39:48.678Z,15.70
2023-04-23T01:42:16.099Z,15.70
2023-04-23T01:44:43.134Z,15.70
2023-04-23T01:47:11.352Z,15.70
2023-04-23T01:49:38.413Z,15.70
2023-04-23T01:52:05.288Z,15.60
2023-04-23T01:54:32.179Z,15.60
2023-04-23T01:56:59.345Z,15.60
2023-04-23T01:59:26.206Z,15.50
2023-04-23T02:01:53.534Z,15.50
2023-04-23T02:04:20.983Z,15.50
2023-04-23T02:06:50.359Z,15.50
2023-04-23T02:09:17.312Z,15.50
2023-04-23T02:11:44.202Z,15.50
2023-04-23T02:14:11.706Z,15.50
2023-04-23T02:16:38.708Z,15.50
2023-04-23T02:19:05.967Z,15.50
2023-04-23T02:21:32.963Z,15.50
2023-04-23T02:23:59.893Z,15.50
2023-04-23T02:26:27.410Z,15.50
2023-04-23T02:28:54.226Z,15.50
2023-04-23T02:31:21.227Z,15.50
2023-04-23T02:33:48.241Z,15.40
2023-04-23T02:36:15.203Z,15.40
2023-04-23T02:38:42.630Z,15.40
2023-04-23T02:41:09.564Z,15.40
2023-04-23T02:43:36.532Z,15.40
2023-04-23T02:46:09.698Z,15.30
2023-04-23T02:48:38.871Z,15.30
2023-04-23T02:51:06.659Z,15.30
2023-04-23T02:53:33.828Z,15.30
2023-04-23T02:56:01.560Z,15.30
2023-04-23T02:58:29.042Z,15.20
2023-04-23T03:00:56.232Z,15.20
2023-04-23T03:03:26.716Z,15.10
2023-04-23T03:05:54.400Z,15.20
2023-04-23T03:08:21.575Z,15.20
2023-04-23T03:10:48.639Z,15.20
2023-04-23T03:13:15.805Z,15.20
2023-04-23T03:15:42.737Z,15.10
2023-04-23T03:18:09.734Z,15.20
2023-04-23T03:20:36.684Z,15.10
2023-04-23T03:23:06.518Z,15.10
2023-04-23T03:25:34.146Z,15.10
2023-04-23T03:28:01.054Z,15.10
2023-04-23T03:30:28.632Z,15.10
2023-04-23T03:32:58.777Z,15.00
2023-04-23T03:35:26.598Z,15.00
2023-04-23T03:37:53.760Z,15.00
2023-04-23T03:40:21.391Z,15.00
2023-04-23T03:42:48.558Z,15.00
2023-04-23T03:45:16.968Z,15.00
2023-04-23T03:47:44.126Z,15.00
2023-04-23T03:50:13.495Z,15.00
2023-04-23T03:52:40.705Z,15.00
2023-04-23T03:55:08.230Z,15.00
2023-04-23T03:57:36.414Z,15.00
2023-04-23T04:00:08.027Z,15.00
2023-04-23T04:02:35.049Z,15.00
2023-04-23T04:05:02.204Z,14.90
2023-04-23T04:07:29.727Z,15.00
2023-04-23T04:09:56.619Z,14.90
2023-04-23T04:12:23.467Z,14.90
2023-04-23T04:14:50.375Z,14.90
2023-04-23T04:17:17.420Z,14.90
2023-04-23T04:19:44.243Z,14.80
2023-04-23T04:22:11.080Z,14.80
2023-04-23T04:24:38.096Z,14.80
2023-04-23T04:27:08.066Z,14.70
2023-04-23T04:29:35.051Z,14.70
2023-04-23T04:32:02.798Z,14.70
2023-04-23T04:34:29.654Z,14.70
2023-04-23T04:36:56.548Z,14.70
2023-04-23T04:39:23.491Z,14.60
2023-04-23T04:41:50.385Z,14.60
2023-04-23T04:44:17.754Z,14.50
2023-04-23T04:46:45.241Z,14.50
2023-04-23T04:49:13.307Z,14.50
2023-04-23T04:51:41.323Z,14.50
2023-04-23T04:54:08.643Z,14.40
2023-04-23T04:56:35.743Z,14.40
2023-04-23T04:59:04.149Z,14.40
2023-04-23T05:01:31.485Z,14.40
2023-04-23T05:03:59.276Z,14.40
2023-04-23T05:06:26.706Z,14.50
2023-04-23T05:08:53.486Z,14.50
2023-04-23T05:11:21.242Z,14.50
2023-04-23T05:13:48.790Z,14.50
2023-04-23T05:16:16.114Z,14.50
2023-04-23T05:18:43.151Z,14.50
2023-04-23T05:21:10.083Z,14.40
2023-04-23T05:23:37.224Z,14.40
2023-04-23T05:26:04.367Z,14.40
2023-04-23T05:28:31.493Z,14.40
2023-04-23T05:30:58.772Z,14.40
2023-04-23T05:33:30.679Z,14.40
2023-04-23T05:36:00.044Z,14.40
2023-04-23T05:38:27.103Z,14.40
2023-04-23T05:40:53.902Z,14.30
2023-04-23T05:43:21.846Z,14.40
2023-04-23T05:45:49.301Z,14.40
2023-04-23T05:48:16.123Z,14.40
2023-04-23T05:50:43.348Z,14.40
2023-04-23T05:53:10.179Z,14.40
2023-04-23T05:55:37.362Z,14.50
2023-04-23T05:58:05.184Z,14.50
2023-04-23T06:00:35.524Z,14.50
2023-04-23T06:03:02.975Z,14.50
2023-04-23T06:05:30.092Z,14.60
2023-04-23T06:07:56.958Z,14.60
2023-04-23T06:10:25.240Z,14.60
2023-04-23T06:12:54.231Z,14.60
2023-04-23T06:15:21.157Z,14.70
2023-04-23T06:17:47.999Z,14.70
2023-04-23T06:20:16.020Z,14.60
2023-04-23T06:22:42.896Z,14.60
2023-04-23T06:25:10.521Z,14.60
2023-04-23T06:27:37.350Z,14.70
2023-04-23T06:30:04.557Z,14.70
2023-04-23T06:32:31.976Z,14.60
2023-04-23T06:35:01.920Z,14.50
2023-04-23T06:37:32.062Z,14.50
2023-04-23T06:40:00.053Z,14.50
2023-04-23T06:42:26.994Z,14.50
2023-04-23T06:44:54.398Z,14.50
2023-04-23T06:47:21.380Z,14.50
2023-04-23T06:49:48.198Z,14.50
2023-04-23T06:52:15.116Z,14.50
2023-04-23T06:54:42.217Z,14.60
2023-04-23T06:57:09.499Z,14.50
2023-04-23T06:59:36.294Z,14.50
2023-04-23T07:02:03.148Z,14.60
2023-04-23T07:04:30.174Z,14.60
2023-04-23T07:06:57.430Z,14.60
2023-04-23T07:09:24.511Z,14.60
2023-04-23T07:11:51.418Z,14.70
2023-04-23T07:14:18.299Z,14.80
2023-04-23T07:16:46.193Z,15.10
2023-04-23T07:19:13.054Z,15.30
2023-04-23T07:21:42.516Z,15.50
2023-04-23T07:24:09.865Z,15.80
2023-04-23T07:26:36.776Z,15.80
2023-04-23T07:29:10.736Z,15.80
2023-04-23T07:31:39.763Z,16.00
2023-04-23T07:34:06.809Z,16.20
2023-04-23T07:36:33.738Z,16.20
2023-04-23T07:39:00.595Z,16.10
2023-04-23T07:41:27.569Z,16.00
2023-04-23T07:43:54.388Z,16.00
2023-04-23T07:46:21.650Z,16.10
2023-04-23T07:48:48.488Z,16.10
2023-04-23T07:51:16.244Z,16.20
2023-04-23T07:53:43.110Z,16.60
2023-04-23T07:56:10.596Z,16.70
2023-04-23T07:58:37.356Z,16.80
2023-04-23T08:01:04.370Z,16.80
2023-04-23T08:03:31.422Z,16.80
2023-04-23T08:05:58.306Z,16.70
2023-04-23T08:08:25.114Z,16.70
2023-04-23T08:10:51.894Z,16.70
2023-04-23T08:13:21.827Z,16.60
2023-04-23T08:15:49.290Z,16.70
2023-04-23T08:18:16.231Z,16.80
2023-04-23T08:20:43.137Z,16.80
2023-04-23T08:23:10.073Z,16.90
2023-04-23T08:25:37.153Z,17.00
2023-04-23T08:28:04.145Z,17.40
2023-04-23T08:30:31.095Z,17.50
2023-04-23T08:33:00.839Z,17.60
2023-04-23T08:35:27.806Z,17.60
2023-04-23T08:37:54.650Z,17.90
2023-04-23T08:40:22.973Z,18.10
2023-04-23T08:42:55.410Z,18.30
2023-04-23T08:45:23.313Z,18.60
2023-04-23T08:50:20.131Z,18.90
2023-04-23T08:52:53.542Z,18.80
2023-04-23T08:55:22.066Z,18.70
2023-04-23T08:57:49.834Z,18.80
2023-04-23T09:00:19.182Z,18.90
2023-04-23T09:02:50.236Z,19.00
2023-04-23T09:05:17.480Z,19.20
2023-04-23T09:07:44.783Z,19.40
2023-04-23T09:10:14.152Z,19.50
2023-04-23T09:12:47.078Z,19.60
2023-04-23T09:15:14.479Z,19.70
2023-04-23T09:17:46.935Z,19.80
2023-04-23T09:20:15.296Z,19.90
2023-04-23T09:22:44.359Z,20.00
2023-04-23T09:25:15.670Z,19.80
2023-04-23T09:27:42.528Z,19.80
2023-04-23T09:30:13.860Z,19.80
2023-04-23T09:32:43.454Z,19.70
2023-04-23T09:35:20.014Z,19.60
2023-04-23T09:37:49.454Z,19.70
2023-04-23T09:40:27.913Z,19.80
2023-04-23T09:42:55.234Z,19.80
2023-04-23T09:45:22.432Z,19.70
2023-04-23T09:47:51.997Z,19.80
2023-04-23T09:50:21.773Z,19.70
2023-04-23T09:52:57.194Z,19.70
2023-04-23T09:55:31.776Z,19.70
2023-04-23T09:57:58.804Z,19.70
2023-04-23T10:00:29.462Z,19.70
2023-04-23T10:02:56.418Z,19.80
2023-04-23T10:05:29.422Z,19.80
2023-04-23T10:08:06.504Z,19.80
2023-04-23T10:10:40.635Z,19.90
2023-04-23T10:13:21.202Z,19.80
2023-04-23T10:15:48.459Z,19.70
2023-04-23T10:18:18.185Z,19.60
2023-04-23T10:20:46.658Z,19.50
2023-04-23T10:23:19.345Z,19.50
2023-04-23T10:25:48.313Z,19.40
2023-04-23T10:28:19.539Z,19.50
2023-04-23T10:30:47.529Z,19.50
2023-04-23T10:33:28.926Z,19.50
2023-04-23T10:35:57.855Z,19.50
2023-04-23T10:38:28.676Z,19.40
2023-04-23T10:40:58.757Z,19.40
2023-04-23T10:43:25.975Z,19.40
2023-04-23T10:45:53.913Z,19.30
2023-04-23T10:48:21.354Z,19.30
2023-04-23T10:51:14.600Z,19.30
2023-04-23T10:53:46.119Z,19.30
2023-04-23T10:56:14.363Z,19.30
2023-04-23T10:58:52.331Z,19.20
2023-04-23T11:01:21.503Z,19.20
2023-04-23T11:03:48.902Z,19.20
2023-04-23T11:06:39.874Z,19.10
2023-04-23T11:09:32.792Z,19.10
2023-04-23T11:12:02.505Z,19.10
2023-04-23T11:14:45.376Z,19.10
2023-04-23T11:17:14.393Z,19.00
2023-04-23T11:20:02.772Z,18.90
2023-04-23T11:22:37.380Z,18.90
2023-04-23T11:25:05.643Z,18.90
2023-04-23T11:27:32.748Z,18.90
2023-04-23T11:30:00.115Z,18.90
2023-04-23T11:32:28.915Z,18.90
2023-04-23T11:35:00.337Z,18.90
2023-04-23T11:37:27.256Z,19.00
2023-04-23T11:39:54.077Z,19.00
2023-04-23T11:42:20.954Z,19.00
2023-04-23T11:44:49.381Z,19.00
2023-04-23T11:47:18.855Z,19.10
2023-04-23T11:49:46.113Z,19.10
2023-04-23T11:52:14.556Z,19.20
2023-04-23T11:54:46.356Z,19.30
2023-04-23T11:57:14.679Z,19.30
2023-04-23T11:59:43.662Z,19.40
2023-04-23T12:02:12.540Z,19.40
2023-04-23T12:04:41.398Z,19.50
2023-04-23T12:07:15.982Z,19.40
2023-04-23T12:09:52.346Z,19.40
2023-04-23T12:12:20.295Z,19.30
2023-04-23T12:14:47.084Z,19.30
2023-04-23T12:17:13.953Z,19.40
2023-04-23T12:19:45.163Z,19.50
2023-04-23T12:22:13.316Z,19.50
2023-04-23T12:24:51.055Z,19.50
2023-04-23T12:27:20.635Z,19.50
2023-04-23T12:29:51.467Z,19.50
2023-04-23T12:32:19.394Z,19.60
2023-04-23T12:34:57.219Z,19.60
2023-04-23T12:37:29.526Z,19.70
2023-04-23T12:39:59.657Z,19.70
2023-04-23T12:42:26.654Z,19.70
2023-04-23T12:44:55.981Z,19.70
2023-04-23T12:47:24.208Z,19.60
2023-04-23T12:49:53.906Z,19.60
2023-04-23T12:52:21.558Z,19.60
2023-04-23T12:54:53.255Z,19.60
2023-04-23T12:57:23.543Z,19.50
2023-04-23T12:59:50.812Z,19.50
2023-04-23T13:02:19.406Z,19.50
2023-04-23T13:04:46.426Z,19.50
2023-04-23T13:07:14.058Z,19.40
2023-04-23T13:09:41.160Z,19.40
2023-04-23T13:12:08.152Z,19.30
2023-04-23T13:14:34.978Z,19.30
2023-04-23T13:17:06.346Z,19.20
2023-04-23T13:19:34.615Z,19.20
2023-04-23T13:22:04.257Z,19.20
2023-04-23T13:24:31.485Z,19.00
2023-04-23T13:26:58.591Z,19.00
2023-04-23T13:29:27.402Z,18.90
2023-04-23T13:31:55.788Z,18.90
2023-04-23T13:34:26.608Z,18.80
2023-04-23T13:36:53.462Z,18.80
2023-04-23T13:39:20.536Z,18.80
2023-04-23T13:41:59.163Z,18.80
2023-04-23T13:44:29.575Z,18.80
2023-04-23T13:46:59.252Z,18.70
2023-04-23T13:49:28.927Z,18.80
2023-04-23T13:51:59.140Z,18.80
2023-04-23T13:54:29.537Z,18.80
2023-04-23T13:56:56.624Z,18.80
2023-04-23T13:59:24.525Z,18.80
2023-04-23T14:01:51.776Z,18.90
2023-04-23T14:04:25.481Z,18.90
2023-04-23T14:06:52.431Z,18.90
2023-04-23T14:09:19.308Z,19.00
2023-04-23T14:11:47.401Z,19.00
2023-04-23T14:14:14.186Z,19.00
2023-04-23T14:16:41.257Z,19.10
2023-04-23T14:19:09.080Z,19.00
2023-04-23T14:21:36.387Z,18.90
2023-04-23T14:24:10.576Z,18.90
2023-04-23T14:26:48.056Z,19.00
2023-04-23T14:29:25.436Z,19.00
2023-04-23T14:31:52.910Z,19.00
2023-04-23T14:34:19.985Z,19.00
2023-04-23T14:36:50.349Z,19.00
2023-04-23T14:39:17.384Z,19.00
2023-04-23T14:41:45.400Z,19.00
2023-04-23T14:44:13.702Z,18.80
2023-04-23T14:46:40.560Z,18.80
2023-04-23T14:49:10.033Z,18.80
2023-04-23T14:51:37.592Z,18.70
2023-04-23T14:54:07.964Z,18.70
2023-04-23T14:56:35.036Z,18.60
2023-04-23T14:59:04.830Z,18.60
2023-04-23T15:01:31.805Z,18.50
2023-04-23T15:03:58.916Z,18.60
2023-04-23T15:06:25.881Z,18.60
2023-04-23T15:08:52.799Z,18.60
2023-04-23T15:11:19.728Z,18.60
2023-04-23T15:14:09.327Z,18.70
2023-04-23T15:19:07.644Z,18.70
2023-04-23T15:21:35.597Z,18.60
2023-04-23T15:24:02.378Z,18.60
2023-04-23T15:26:30.381Z,18.60
2023-04-23T15:28:58.210Z,18.60
2023-04-23T15:31:25.178Z,18.50
2023-04-23T15:33:52.150Z,18.60
2023-04-23T15:36:19.036Z,18.60
2023-04-23T15:38:45.897Z,18.60
2023-04-23T15:41:14.078Z,18.60
2023-04-23T15:43:43.675Z,18.50
2023-04-23T15:46:10.862Z,18.50
2023-04-23T15:48:37.705Z,18.40
2023-04-23T15:51:04.970Z,18.30
2023-04-23T15:53:32.588Z,18.30
2023-04-23T15:55:59.601Z,18.10
2023-04-23T15:58:26.408Z,17.90
2023-04-23T16:00:53.491Z,17.70
2023-04-23T16:03:21.273Z,17.50
2023-04-23T16:05:51.089Z,17.20
2023-04-23T16:08:18.691Z,17.10
2023-04-23T16:10:45.561Z,17.00
2023-04-23T16:13:12.356Z,16.90
2023-04-23T16:15:39.179Z,16.70
2023-04-23T16:18:06.437Z,16.70
2023-04-23T16:20:33.595Z,16.60
2023-04-23T16:23:01.580Z,16.60
2023-04-23T16:25:28.700Z,16.50
2023-04-23T16:27:56.829Z,16.50
2023-04-23T16:30:24.398Z,16.50
2023-04-23T16:32:51.525Z,16.50
2023-04-23T16:35:18.462Z,16.50
2023-04-23T16:37:47.039Z,16.50
2023-04-23T16:40:19.406Z,16.50
2023-04-23T16:42:48.670Z,16.60
2023-04-23T16:45:16.777Z,16.50
2023-04-23T16:47:45.008Z,16.50
2023-04-23T16:50:12.177Z,16.50
2023-04-23T16:52:41.095Z,16.40
2023-04-23T16:55:08.430Z,16.40
2023-04-23T16:57:37.003Z,16.40
2023-04-23T17:00:08.000Z,16.40
2023-04-23T17:02:35.769Z,16.40
2023-04-23T17:05:02.742Z,16.40
2023-04-23T17:07:29.616Z,16.40
2023-04-23T17:09:56.750Z,16.30
2023-04-23T17:12:23.604Z,16.30
2023-04-23T17:14:50.710Z,16.20
2023-04-23T17:17:17.545Z,16.20
2023-04-23T17:19:48.874Z,16.20
2023-04-23T17:22:15.930Z,16.20
2023-04-23T17:24:42.892Z,16.10
2023-04-23T17:27:09.936Z,16.20
2023-04-23T17:29:37.858Z,16.10
2023-04-23T17:32:04.899Z,16.10
2023-04-23T17:34:33.580Z,16.10
2023-04-23T17:37:03.264Z,16.10
2023-04-23T17:39:30.073Z,16.10
2023-04-23T17:41:57.720Z,16.10
2023-04-23T17:44:24.819Z,16.20
2023-04-23T17:46:53.607Z,16.10
2023-04-23T17:49:20.899Z,16.10
2023-04-23T17:51:47.761Z,16.20
2023-04-23T17:54:14.629Z,16.10
2023-04-23T17:56:41.644Z,16.00
2023-04-23T17:59:09.849Z,16.10
2023-04-23T18:01:36.951Z,16.10
2023-04-23T18:04:04.277Z,16.00
2023-04-23T18:06:32.017Z,16.00
2023-04-23T18:08:58.945Z,16.00
2023-04-23T18:11:25.822Z,16.00
2023-04-23T18:13:53.810Z,16.00
2023-04-23T18:16:21.201Z,16.00
2023-04-23T18:18:52.205Z,16.00
2023-04-23T18:21:19.076Z,15.90
2023-04-23T18:23:46.849Z,15.90
2023-04-23T18:26:13.808Z,15.90
2023-04-23T18:28:40.886Z,15.90
2023-04-23T18:31:07.858Z,15.90
2023-04-23T18:33:42.412Z,15.90
2023-04-23T18:36:38.471Z,15.80
2023-04-23T18:39:07.527Z,15.90
2023-04-23T18:41:34.815Z,15.90
2023-04-23T18:44:02.657Z,16.00
2023-04-23T18:46:31.613Z,16.00
2023-04-23T18:49:18.422Z,15.90
2023-04-23T18:51:50.154Z,15.90
2023-04-23T18:54:17.942Z,15.80
2023-04-23T18:56:48.036Z,15.60
2023-04-23T18:59:15.118Z,15.60
2023-04-23T19:01:43.768Z,15.60
2023-04-23T19:04:10.752Z,15.50
2023-04-23T19:06:38.245Z,15.50
2023-04-23T19:09:05.224Z,15.50
2023-04-23T19:11:35.269Z,15.60
2023-04-23T19:14:02.473Z,15.60
2023-04-23T19:16:29.540Z,15.60
2023-04-23T19:18:56.687Z,15.60
2023-04-23T19:21:23.688Z,15.50
2023-04-23T19:23:54.689Z,15.50
2023-04-23T19:26:21.572Z,15.50
2023-04-23T19:28:48.440Z,15.50
2023-04-23T19:31:16.647Z,15.50
2023-04-23T19:33:46.447Z,15.50
2023-04-23T19:36:14.187Z,15.50
2023-04-23T19:38:41.150Z,15.60
2023-04-23T19:41:09.452Z,15.60
2023-04-23T19:43:36.336Z,15.70
2023-04-23T19:46:03.174Z,15.70
2023-04-23T19:48:31.825Z,15.70
2023-04-23T19:51:00.246Z,15.80
2023-04-23T19:53:28.786Z,15.80
2023-04-23T19:55:55.660Z,15.80
2023-04-23T19:58:23.960Z,15.80
2023-04-23T20:00:52.345Z,15.70
2023-04-23T20:03:19.881Z,15.60
2023-04-23T20:05:48.323Z,15.50
2023-04-23T20:08:26.849Z,15.50
2023-04-23T20:10:54.977Z,15.40
2023-04-23T20:13:21.974Z,15.30
2023-04-23T20:15:51.347Z,15.30
2023-04-23T20:18:18.568Z,15.20
2023-04-23T20:20:45.854Z,15.10
2023-04-23T20:23:12.753Z,15.00
2023-04-23T20:25:39.907Z,15.00
2023-04-23T20:28:06.862Z,15.00
2023-04-23T20:30:35.300Z,14.80
2023-04-23T20:33:03.581Z,14.80
2023-04-23T20:35:31.676Z,14.70
2023-04-23T20:37:58.996Z,14.70
2023-04-23T20:40:26.271Z,14.70
2023-04-23T20:42:54.780Z,14.70
2023-04-23T20:45:22.599Z,14.70
2023-04-23T20:47:50.428Z,14.60
2023-04-23T20:50:17.565Z,14.60
2023-04-23T20:52:44.553Z,14.70
2023-04-23T20:55:11.461Z,14.70
2023-04-23T20:57:38.373Z,14.70
2023-04-23T21:00:11.705Z,14.60
2023-04-23T21:02:39.255Z,14.60
2023-04-23T21:05:08.034Z,14.50
2023-04-23T21:07:36.816Z,14.40
2023-04-23T21:10:04.881Z,14.30
2023-04-23T21:12:32.632Z,14.30
2023-04-23T21:15:00.819Z,14.20
2023-04-23T21:17:27.995Z,14.20
2023-04-23T21:19:54.855Z,14.10
2023-04-23T21:22:21.687Z,14.10
2023-04-23T21:24:48.609Z,14.00
2023-04-23T21:27:21.723Z,14.00
2023-04-23T21:29:49.218Z,14.00
2023-04-23T21:32:16.514Z,14.00
2023-04-23T21:34:43.326Z,14.00
2023-04-23T21:37:10.840Z,14.00
2023-04-23T21:39:37.740Z,14.00
2023-04-23T21:42:04.836Z,14.10
2023-04-23T21:44:31.975Z,14.00
2023-04-23T21:46:58.919Z,14.00
2023-04-23T21:49:25.904Z,14.00
2023-04-23T21:51:55.011Z,14.10
2023-04-23T21:54:22.097Z,14.00
2023-04-23T21:56:52.312Z,14.00
2023-04-23T21:59:19.381Z,14.00
2023-04-23T22:01:46.449Z,14.00
2023-04-23T22:04:13.716Z,14.00
2023-04-23T22:06:40.664Z,14.00
2023-04-23T22:09:08.158Z,14.00
2023-04-23T22:11:34.972Z,14.10
2023-04-23T22:14:02.059Z,14.10
2023-04-23T22:16:30.386Z,14.10
2023-04-23T22:18:57.871Z,14.20
2023-04-23T22:21:24.810Z,14.20
2023-04-23T22:23:52.375Z,14.20
2023-04-23T22:26:19.293Z,14.20
2023-04-23T22:28:46.309Z,14.20
2023-04-23T22:31:13.502Z,14.20
2023-04-23T22:33:40.738Z,14.20
2023-04-23T22:36:07.867Z,14.20
2023-04-23T22:38:35.155Z,14.20
2023-04-23T22:41:02.354Z,14.30
2023-04-23T22:43:29.381Z,14.30
2023-04-23T22:45:56.369Z,14.30
2023-04-23T22:48:23.976Z,14.30
2023-04-23T22:50:53.781Z,14.30
2023-04-23T22:53:21.895Z,14.30
2023-04-23T22:55:49.700Z,14.30
2023-04-23T22:58:16.963Z,14.30
2023-04-23T23:00:43.860Z,14.30
2023-04-23T23:03:10.884Z,14.30
2023-04-23T23:05:37.762Z,14.20
2023-04-23T23:08:04.623Z,14.20
2023-04-23T23:10:32.157Z,14.20
2023-04-23T23:12:58.919Z,14.20
2023-04-23T23:15:28.153Z,14.20
2023-04-23T23:17:55.181Z,14.30
2023-04-23T23:20:22.062Z,14.30
2023-04-23T23:22:48.988Z,14.30
2023-04-23T23:25:17.627Z,14.30
2023-04-23T23:27:44.484Z,14.30
2023-04-23T23:30:11.588Z,14.30
2023-04-23T23:32:38.533Z,14.20
2023-04-23T23:35:06.652Z,14.20
2023-04-23T23:37:33.694Z,14.20
2023-04-23T23:40:00.597Z,14.20
2023-04-23T23:42:27.530Z,14.20
2023-04-23T23:44:54.517Z,14.30
2023-04-23T23:47:21.386Z,14.30
2023-04-23T23:49:48.346Z,14.30
2023-04-23T23:52:15.184Z,14.30
2023-04-23T23:54:42.725Z,14.30
2023-04-23T23:57:09.609Z,14.20
2023-04-23T23:59:36.727Z,14.30
